Time;durP1;ratioP1;P1;durP2;ratioP2;P2;SDS_P1;SDS_P2;PMS_P1;PMS_P2;Temp;Humidity;BMP_temperature;BMP_pressure;BME280_temperature;BME280_humidity;BME280_pressure;Samples;Min_cycle;Max_cycle;Signal;HPM_P1;HPM_P2
2022/06/05 00:00:30;;;;;;;;;;;17.90;99.90;;;18.12;71.08;101628.59;4842561;29;19924;-61
2022/06/05 00:03:10;;;;;;;;;;;17.90;99.90;;;18.06;71.03;101611.81;4805582;29;1112234;-61
2022/06/05 00:05:48;;;;;;;;;;;17.90;99.90;;;18.13;71.10;101640.22;4843604;29;20015;-61
2022/06/05 00:08:23;;;;;;;;;;;17.80;99.90;;;18.10;70.82;101641.16;4843197;29;19931;-61
2022/06/05 00:10:54;;;;;;;;;;;17.90;99.90;;;18.20;71.02;101653.41;4843432;29;20022;-61
2022/06/05 00:13:27;;;;;;;;;;;17.90;99.90;;;18.21;70.88;101649.84;4842898;29;19924;-61
2022/06/05 00:15:56;;;;;;;;;;;17.90;99.90;;;18.38;70.46;101644.97;4842859;29;20014;-61
2022/06/05 00:18:26;;;;;;;;;;;18.10;99.90;;;18.14;70.76;101642.84;4842795;29;19924;-61
2022/06/05 00:20:54;;;;;;;;;;;17.90;99.90;;;17.97;71.19;101650.38;4843301;29;19981;-61
2022/06/05 00:23:22;;;;;;;;;;;17.80;99.90;;;17.92;71.65;101646.94;4842563;29;19924;-61
2022/06/05 00:25:56;;;;;;;;;;;17.70;99.90;;;18.07;71.40;101635.00;4842720;29;19931;-61
2022/06/05 00:28:33;;;;;;;;;;;17.70;99.90;;;18.11;71.44;101628.66;4841859;29;20030;-61
2022/06/05 00:31:08;;;;;;;;;;;17.80;99.90;;;18.02;71.33;101613.69;4842746;29;20019;-61
2022/06/05 00:33:40;;;;;;;;;;;17.90;99.90;;;18.02;71.30;101635.97;4843263;29;19931;-61
2022/06/05 00:36:16;;;;;;;;;;;17.80;99.90;;;17.98;71.50;101630.75;4842924;29;19924;-61
2022/06/05 00:38:49;;;;;;;;;;;17.80;99.90;;;17.67;72.07;101616.28;4842622;29;19924;-61
2022/06/05 00:41:33;;;;;;;;;;;17.50;99.90;;;17.78;72.53;101627.63;4842885;29;20316;-61
2022/06/05 00:44:03;;;;;;;;;;;17.50;99.90;;;17.80;73.23;101609.72;4842559;29;20423;-61
2022/06/05 00:46:32;;;;;;;;;;;17.50;99.90;;;17.70;74.95;101613.50;4842579;29;19980;-61
2022/06/05 00:49:03;;;;;;;;;;;17.50;99.90;;;17.71;76.35;101602.78;4842533;29;19924;-61
2022/06/05 00:51:31;;;;;;;;;;;17.50;99.90;;;17.59;77.39;101580.75;4843073;29;19930;-61
2022/06/05 00:53:59;;;;;;;;;;;17.40;99.90;;;17.65;77.71;101572.63;4842410;29;20276;-61
2022/06/05 00:56:27;;;;;;;;;;;17.50;99.90;;;17.66;77.98;101602.00;4841487;29;19962;-61
2022/06/05 00:58:56;;;;;;;;;;;17.40;99.90;;;17.60;78.15;101601.25;4842419;29;19931;-61
2022/06/05 01:01:24;;;;;;;;;;;17.30;99.90;;;17.50;78.66;101587.19;4842752;29;20015;-61
2022/06/05 01:03:53;;;;;;;;;;;17.30;99.90;;;17.47;79.18;101615.75;4842683;29;19924;-61
2022/06/05 01:06:22;;;;;;;;;;;17.20;99.90;;;17.14;78.92;101674.34;4842362;29;19924;-61
2022/06/05 01:08:50;;;;;;;;;;;17.00;99.90;;;17.17;79.60;101733.13;4842307;29;19950;-61
2022/06/05 01:11:22;;;;;;;;;;;16.90;99.90;;;17.00;81.05;101726.28;4842296;29;19924;-61
2022/06/05 01:13:59;;;;;;;;;;;16.80;99.90;;;17.19;81.03;101686.78;4842590;29;20296;-61
2022/06/05 01:16:30;;;;;;;;;;;16.90;99.90;;;17.19;80.95;101716.19;4842297;29;20014;-61
2022/06/05 01:19:11;;;;;;;;;;;16.90;99.90;;;17.34;79.84;101754.22;4842606;29;20275;-61
2022/06/05 01:21:55;;;;;;;;;;;17.00;99.90;;;17.20;79.75;101710.78;4842509;29;19949;-61
2022/06/05 01:24:38;;;;;;;;;;;17.10;99.90;;;17.45;81.07;101700.50;4842490;29;19925;-60
2022/06/05 01:27:12;;;;;;;;;;;17.10;99.90;;;17.60;81.75;101735.03;4842519;29;20027;-60
2022/06/05 01:29:43;;;;;;;;;;;17.30;99.90;;;17.67;81.42;101721.50;4842833;29;19925;-60
2022/06/05 01:32:14;;;;;;;;;;;17.40;99.90;;;17.79;81.53;101712.34;4842257;29;20019;-60
2022/06/05 01:34:47;;;;;;;;;;;17.50;99.90;;;17.87;81.61;101713.06;4842225;29;19924;-60
2022/06/05 01:37:19;;;;;;;;;;;17.60;99.90;;;17.93;82.17;101711.16;4842240;29;19924;-61
2022/06/05 01:39:48;;;;;;;;;;;17.60;99.90;;;17.96;82.59;101705.72;4843931;29;20027;-61
2022/06/05 01:42:23;;;;;;;;;;;17.60;99.90;;;18.01;82.54;101710.97;4845390;29;19925;-60
2022/06/05 01:44:52;;;;;;;;;;;17.70;99.90;;;18.06;82.18;101710.91;4845359;29;20038;-61
2022/06/05 01:47:24;;;;;;;;;;;17.70;99.90;;;18.10;81.77;101697.38;4845940;29;19956;-61
2022/06/05 01:49:54;;;;;;;;;;;17.80;99.90;;;18.11;81.73;101677.75;4846142;29;19924;-61
2022/06/05 01:52:26;;;;;;;;;;;17.80;99.90;;;18.20;81.32;101663.25;4845561;29;19924;-62
2022/06/05 01:55:00;;;;;;;;;;;17.90;99.90;;;18.14;80.78;101642.84;4844271;29;20342;-61
2022/06/05 01:57:31;;;;;;;;;;;17.90;99.90;;;18.30;80.59;101654.09;4845189;29;19929;-61
2022/06/05 02:00:05;;;;;;;;;;;18.00;99.90;;;18.24;80.30;101644.41;4845393;29;19980;-61
2022/06/05 02:02:39;;;;;;;;;;;18.00;99.90;;;18.29;80.18;101641.63;4845336;29;19967;-61
2022/06/05 02:05:09;;;;;;;;;;;18.00;99.90;;;18.31;80.10;101632.59;4845193;29;20339;-61
2022/06/05 02:07:40;;;;;;;;;;;18.00;99.90;;;18.26;79.44;101631.84;4844955;29;19949;-61
2022/06/05 02:10:13;;;;;;;;;;;18.00;99.90;;;18.24;79.11;101631.00;4844971;29;19924;-61
2022/06/05 02:12:42;;;;;;;;;;;18.00;99.90;;;18.23;79.05;101621.22;4844930;29;19960;-60
2022/06/05 02:15:11;;;;;;;;;;;17.90;99.90;;;18.20;79.24;101610.56;4844871;29;20010;-61
2022/06/05 02:17:39;;;;;;;;;;;17.90;99.90;;;18.16;79.17;101611.56;4844994;29;19924;-60
2022/06/05 02:20:09;;;;;;;;;;;17.90;99.90;;;18.12;78.93;101612.53;4844761;29;19931;-60
2022/06/05 02:22:39;;;;;;;;;;;17.90;99.90;;;18.13;79.15;101611.66;4844728;29;20023;-60
2022/06/05 02:25:09;;;;;;;;;;;17.80;99.90;;;18.00;79.15;101602.13;4844897;29;19925;-60
2022/06/05 02:27:37;;;;;;;;;;;17.70;99.90;;;17.96;79.35;101601.31;4844616;29;20387;-60
2022/06/05 02:30:09;;;;;;;;;;;17.70;99.90;;;17.89;79.61;101589.00;4844586;29;20403;-60
2022/06/05 02:32:45;;;;;;;;;;;17.60;99.90;;;17.85;79.91;101576.59;4845135;29;20032;-60
2022/06/05 02:35:22;;;;;;;;;;;17.60;99.90;;;17.65;80.03;101561.91;4844575;29;20439;-60
2022/06/05 02:38:27;;;;;;;;;;;17.40;99.90;;;17.65;80.71;101546.72;4844721;29;19928;-61
2022/06/05 02:40:59;;;;;;;;;;;17.40;99.90;;;17.62;80.82;101541.44;4844936;29;19924;-61
2022/06/05 02:43:31;;;;;;;;;;;17.30;99.90;;;17.60;81.14;101542.38;4844392;29;19925;-60
2022/06/05 02:46:05;;;;;;;;;;;17.30;99.90;;;17.57;81.38;101521.06;4844300;29;19924;-60
2022/06/05 02:48:36;;;;;;;;;;;17.30;99.90;;;17.47;81.70;101511.44;4844320;29;19924;-60
2022/06/05 02:51:08;;;;;;;;;;;17.20;99.90;;;17.45;82.00;101521.28;4843623;29;20458;-60
2022/06/05 02:53:47;;;;;;;;;;;17.20;99.90;;;17.42;81.86;101508.00;4844151;29;19924;-60
2022/06/05 02:56:16;;;;;;;;;;;17.10;99.90;;;17.44;82.01;101484.78;4844368;29;19980;-60
2022/06/05 02:58:44;;;;;;;;;;;17.10;99.90;;;17.34;82.28;101477.88;4844298;29;19935;-60
2022/06/05 03:03:59;;;;;;;;;;;17.10;99.90;;;17.19;83.05;101435.44;4844499;29;20434;-62
2022/06/05 03:06:29;;;;;;;;;;;17.00;99.90;;;17.13;83.46;101426.59;4844094;29;20276;-60
2022/06/05 03:08:58;;;;;;;;;;;16.90;99.90;;;17.11;83.54;101406.19;4843869;29;19925;-61
2022/06/05 03:11:26;;;;;;;;;;;16.90;99.90;;;17.13;83.53;101405.22;4843892;29;20372;-61
2022/06/05 03:13:54;;;;;;;;;;;16.90;99.90;;;17.05;83.82;101398.31;4843767;29;19929;-61
2022/06/05 03:16:23;;;;;;;;;;;16.80;99.90;;;16.92;84.18;101404.81;4843750;29;19967;-61
2022/06/05 03:18:52;;;;;;;;;;;16.70;99.90;;;16.85;84.29;101401.41;4842763;29;20393;-61
2022/06/05 03:21:20;;;;;;;;;;;16.60;99.90;;;16.74;84.84;101407.91;4843839;29;19932;-61
2022/06/05 03:23:48;;;;;;;;;;;16.50;99.90;;;16.66;85.06;101401.81;4843557;29;20430;-61
2022/06/05 03:26:16;;;;;;;;;;;16.40;99.90;;;16.62;85.05;101397.47;4843775;29;19967;-61
2022/06/05 03:28:45;;;;;;;;;;;16.40;99.90;;;16.64;85.72;101406.31;4843797;29;19963;-61
2022/06/05 03:31:13;;;;;;;;;;;16.40;99.90;;;16.63;85.90;101373.38;4844088;29;20018;-61
2022/06/05 03:33:42;;;;;;;;;;;16.40;99.90;;;16.58;86.04;101374.38;4843476;29;19964;-61
2022/06/05 03:36:13;;;;;;;;;;;16.30;99.90;;;16.59;86.09;101377.03;4842756;29;19925;-61
2022/06/05 03:38:41;;;;;;;;;;;16.30;99.90;;;16.23;86.35;101367.06;4843623;29;19958;-61
2022/06/05 03:41:09;;;;;;;;;;;16.20;99.90;;;16.43;86.53;101388.91;4843349;29;19925;-61
2022/06/05 03:43:38;;;;;;;;;;;16.20;99.90;;;16.38;86.58;101388.13;4827176;29;19931;-61
2022/06/05 03:46:08;;;;;;;;;;;16.10;99.90;;;16.25;86.76;101359.91;4843433;29;20363;-61
2022/06/05 03:48:37;;;;;;;;;;;16.10;99.90;;;16.46;86.80;101371.94;4843447;29;20335;-61
2022/06/05 03:51:08;;;;;;;;;;;16.20;99.90;;;16.49;86.70;101364.75;4843451;29;19968;-61
2022/06/05 03:53:36;;;;;;;;;;;16.20;99.90;;;16.43;86.61;101380.03;4843146;29;19928;-61
2022/06/05 03:56:08;;;;;;;;;;;16.20;99.90;;;16.32;86.48;101369.53;4843624;29;20007;-61
2022/06/05 03:58:37;;;;;;;;;;;16.10;99.90;;;16.19;87.01;101387.59;4843094;29;19928;-61
2022/06/05 04:01:08;;;;;;;;;;;16.00;99.90;;;16.18;87.45;101374.28;4843061;29;19946;-61
2022/06/05 04:03:36;;;;;;;;;;;15.90;99.90;;;16.09;87.39;101377.13;4843173;29;19924;-61
2022/06/05 04:06:07;;;;;;;;;;;15.90;99.90;;;16.09;87.86;101345.97;4842944;29;19928;-61
2022/06/05 04:08:36;;;;;;;;;;;16.00;99.90;;;16.08;87.57;101372.69;4842896;29;19932;-61
2022/06/05 04:11:05;;;;;;;;;;;15.90;99.90;;;16.21;87.92;101366.22;4842852;29;19924;-61
2022/06/05 04:13:33;;;;;;;;;;;16.00;99.90;;;16.14;87.63;101359.25;4842822;29;20386;-61
2022/06/05 04:16:01;;;;;;;;;;;16.00;99.90;;;16.12;87.60;101364.59;4843055;29;20019;-61
2022/06/05 04:18:29;;;;;;;;;;;15.90;99.90;;;16.10;87.82;101370.88;4842677;29;19924;-61
2022/06/05 04:20:58;;;;;;;;;;;15.80;99.90;;;16.07;87.74;101386.94;4842690;29;19973;-61
2022/06/05 04:23:27;;;;;;;;;;;15.90;99.90;;;15.59;89.31;101380.69;4842916;29;19944;-61
2022/06/05 04:25:55;;;;;;;;;;;15.50;99.90;;;15.63;89.45;101378.84;4842638;29;20286;-61
2022/06/05 04:28:23;;;;;;;;;;;15.40;99.90;;;15.82;89.36;101374.94;4842904;29;19931;-61
2022/06/05 04:30:51;;;;;;;;;;;15.50;99.90;;;15.85;89.22;101358.91;4843169;29;19980;-61
2022/06/05 04:33:19;;;;;;;;;;;15.60;99.90;;;15.86;89.22;101366.88;4842576;29;19925;-61
2022/06/05 04:35:47;;;;;;;;;;;15.60;99.90;;;15.92;89.08;101368.53;4842903;29;20023;-61
2022/06/05 04:38:15;;;;;;;;;;;15.60;99.90;;;15.89;88.76;101371.28;4842608;29;20018;-61
2022/06/05 04:40:45;;;;;;;;;;;15.60;99.90;;;15.53;89.99;101377.22;4843121;29;19925;-61
2022/06/05 04:43:13;;;;;;;;;;;15.40;99.90;;;15.54;90.58;101373.69;4842781;29;19925;-61
2022/06/05 04:45:47;;;;;;;;;;;15.30;99.90;;;15.59;89.92;101382.47;4843085;29;19924;-61
2022/06/05 04:48:15;;;;;;;;;;;15.30;99.90;;;15.68;89.79;101377.00;4842774;29;19932;-61
2022/06/05 04:50:43;;;;;;;;;;;15.40;99.90;;;15.48;89.86;101365.78;4842536;29;19981;-61
2022/06/05 04:53:11;;;;;;;;;;;15.30;99.90;;;15.51;90.09;101371.03;4842434;29;19925;-61
2022/06/05 04:55:40;;;;;;;;;;;15.30;99.90;;;15.65;90.24;101383.25;4842375;29;19924;-61
2022/06/05 04:58:09;;;;;;;;;;;15.40;99.90;;;15.60;89.76;101369.09;4842667;29;19924;-61
2022/06/05 05:00:37;;;;;;;;;;;15.40;99.90;;;15.38;90.60;101355.25;4842867;29;19924;-61
2022/06/05 05:03:05;;;;;;;;;;;15.20;99.90;;;15.54;90.46;101363.00;4842628;29;19928;-61
2022/06/05 05:05:34;;;;;;;;;;;15.30;99.90;;;15.27;91.24;101381.16;4842398;29;19925;-61
2022/06/05 05:08:02;;;;;;;;;;;15.10;99.90;;;15.34;92.36;101365.97;4842196;29;19930;-61
2022/06/05 05:10:31;;;;;;;;;;;15.10;99.90;;;15.36;92.81;101362.38;4842886;29;19964;-61
2022/06/05 05:12:59;;;;;;;;;;;15.10;99.90;;;15.54;92.06;101360.34;4842532;29;19925;-61
2022/06/05 05:15:28;;;;;;;;;;;15.30;99.90;;;15.58;91.88;101367.38;4845055;29;19932;-61
2022/06/05 05:17:57;;;;;;;;;;;15.30;99.90;;;15.59;91.74;101359.34;4846631;29;20441;-61
2022/06/05 05:20:26;;;;;;;;;;;15.40;99.90;;;15.54;92.12;101352.34;4845716;29;20019;-61
2022/06/05 05:22:54;;;;;;;;;;;15.30;99.90;;;15.56;92.14;101354.09;4845986;29;20024;-61
2022/06/05 05:25:22;;;;;;;;;;;15.40;99.90;;;15.77;91.83;101351.03;4845650;29;19930;-61
2022/06/05 05:27:50;;;;;;;;;;;15.50;99.90;;;15.69;91.15;101336.97;4845484;29;20387;-61
2022/06/05 05:30:18;;;;;;;;;;;15.50;99.90;;;15.78;91.27;101339.44;4845565;29;19932;-61
2022/06/05 05:32:48;;;;;;;;;;;15.60;99.90;;;15.81;91.14;101350.09;4845568;29;19935;-61
2022/06/05 05:35:16;;;;;;;;;;;15.60;99.90;;;15.74;91.55;101342.19;4845464;29;20412;-61
2022/06/05 05:37:44;;;;;;;;;;;15.50;99.90;;;15.85;91.04;101346.41;4845396;29;19924;-61
2022/06/05 05:43:00;;;;;;;;;;;15.50;99.90;;;15.62;91.33;101355.75;4837077;29;20431;-61
2022/06/05 05:45:28;;;;;;;;;;;15.40;99.90;;;15.54;90.93;101333.69;4845323;29;20371;-61
2022/06/05 05:47:58;;;;;;;;;;;15.40;99.90;;;15.58;91.80;101356.72;4845215;29;19928;-61
2022/06/05 05:50:26;;;;;;;;;;;15.30;99.90;;;15.78;91.33;101347.44;4845237;29;19928;-61
2022/06/05 05:52:54;;;;;;;;;;;15.50;99.90;;;15.60;91.84;101354.91;4845439;29;19924;-61
2022/06/05 05:55:22;;;;;;;;;;;15.40;99.90;;;15.29;92.76;101357.16;4845425;29;19947;-61
2022/06/05 05:57:50;;;;;;;;;;;15.10;99.90;;;15.37;93.43;101350.78;4845362;29;20010;-61
2022/06/05 06:00:20;;;;;;;;;;;15.10;99.90;;;15.32;93.05;101333.13;4845320;29;19924;-61
2022/06/05 06:02:48;;;;;;;;;;;15.10;99.90;;;15.42;93.35;101341.88;4845150;29;19981;-61
2022/06/05 06:05:19;;;;;;;;;;;15.20;99.90;;;15.43;93.10;101359.66;4845120;29;20027;-61
2022/06/05 06:07:47;;;;;;;;;;;15.20;99.90;;;15.17;94.61;101344.91;4844995;29;19924;-61
2022/06/05 06:10:15;;;;;;;;;;;15.00;99.90;;;15.35;94.09;101346.38;4844861;29;19977;-61
2022/06/05 06:12:43;;;;;;;;;;;15.10;99.90;;;15.24;94.84;101361.66;4844902;29;19924;-61
2022/06/05 06:15:12;;;;;;;;;;;15.00;99.90;;;15.32;95.07;101352.66;4845077;29;19924;-61
2022/06/05 06:17:40;;;;;;;;;;;15.00;99.90;;;15.51;94.33;101353.25;4844764;29;20015;-61
2022/06/05 06:20:11;;;;;;;;;;;15.20;99.90;;;15.48;93.87;101348.00;4844666;29;19930;-61
2022/06/05 06:22:42;;;;;;;;;;;15.20;99.90;;;15.64;93.99;101361.94;4844692;29;20411;-61
2022/06/05 06:25:11;;;;;;;;;;;15.40;99.90;;;15.44;93.93;101361.41;4844785;29;19970;-61
2022/06/05 06:27:40;;;;;;;;;;;15.30;99.90;;;15.46;94.54;101354.25;4844772;29;19967;-61
2022/06/05 06:30:12;;;;;;;;;;;15.20;99.90;;;15.57;94.34;101360.28;4844852;29;19924;-61
2022/06/05 06:32:40;;;;;;;;;;;15.30;99.90;;;15.60;94.20;101362.91;4844502;29;20302;-60
2022/06/05 06:35:09;;;;;;;;;;;15.40;99.90;;;15.67;93.95;101359.22;4844451;29;19931;-60
2022/06/05 06:37:37;;;;;;;;;;;15.40;99.90;;;15.68;94.05;101358.34;4844967;29;19924;-60
2022/06/05 06:40:08;;;;;;;;;;;15.50;99.90;;;15.87;94.04;101351.75;4844350;29;20027;-60
2022/06/05 06:42:36;;;;;;;;;;;15.50;99.90;;;15.88;93.20;101345.50;4844349;29;20018;-60
2022/06/05 06:45:05;;;;;;;;;;;15.70;99.90;;;16.00;93.41;101335.50;4844188;29;19924;-60
2022/06/05 06:47:34;;;;;;;;;;;15.70;99.90;;;16.09;92.87;101337.97;4844177;29;19964;-60
2022/06/05 06:50:02;;;;;;;;;;;15.80;99.90;;;16.21;92.58;101347.53;4843191;29;19929;-60
2022/06/05 06:52:31;;;;;;;;;;;15.90;99.90;;;16.20;91.91;101340.44;4844622;29;19952;-60
2022/06/05 06:54:59;;;;;;;;;;;16.00;99.90;;;16.23;92.03;101338.59;4844111;29;20040;-61
2022/06/05 06:57:29;;;;;;;;;;;16.00;99.90;;;16.22;91.65;101339.47;4844259;29;20471;-60
2022/06/05 06:59:57;;;;;;;;;;;16.00;99.90;;;16.34;91.81;101330.34;4844046;29;19928;-60
2022/06/05 07:02:25;;;;;;;;;;;16.10;99.90;;;16.40;91.78;101332.88;4844024;29;19930;-60
2022/06/05 07:04:53;;;;;;;;;;;16.10;99.90;;;16.35;91.47;101332.13;4844139;29;20287;-60
2022/06/05 07:07:21;;;;;;;;;;;16.10;99.90;;;16.52;91.13;101326.44;4844216;29;19925;-60
2022/06/05 07:09:50;;;;;;;;;;;16.30;99.90;;;16.44;91.20;101312.34;4843837;29;20443;-60
2022/06/05 07:12:21;;;;;;;;;;;16.20;99.90;;;16.38;90.89;101310.69;4843709;29;19972;-60
2022/06/05 07:14:50;;;;;;;;;;;16.20;99.90;;;16.54;90.67;101304.13;4844260;29;19924;-60
2022/06/05 07:17:18;;;;;;;;;;;16.30;99.90;;;16.63;90.77;101305.72;4843919;29;19964;-60
2022/06/05 07:19:47;;;;;;;;;;;16.40;99.90;;;16.62;90.43;101299.50;4843913;29;19932;-60
2022/06/05 07:22:15;;;;;;;;;;;16.40;99.90;;;16.72;90.20;101300.19;4843788;29;19932;-60
2022/06/05 07:24:43;;;;;;;;;;;16.50;99.90;;;16.63;90.38;101298.59;4843739;29;20332;-60
2022/06/05 07:27:11;;;;;;;;;;;16.50;99.90;;;16.46;90.41;101291.81;4843503;29;20272;-60
2022/06/05 07:29:39;;;;;;;;;;;16.30;99.90;;;16.65;90.56;101296.75;4843939;29;19952;-60
2022/06/05 07:32:11;;;;;;;;;;;16.40;99.90;;;16.67;90.72;101280.69;4843963;29;19935;-60
2022/06/05 07:34:39;;;;;;;;;;;16.40;99.90;;;16.75;90.83;101274.28;4843416;29;19924;-60
2022/06/05 07:37:13;;;;;;;;;;;16.50;99.90;;;16.85;90.23;101273.16;4842203;29;19931;-60
2022/06/05 07:39:41;;;;;;;;;;;16.60;99.90;;;16.99;90.34;101276.34;4843283;29;19924;-60
2022/06/05 07:42:10;;;;;;;;;;;16.70;99.90;;;17.12;90.10;101272.47;4843257;29;19924;-61
2022/06/05 07:44:38;;;;;;;;;;;16.80;99.90;;;17.31;89.67;101272.88;4843455;29;20361;-60
2022/06/05 07:47:08;;;;;;;;;;;17.00;99.90;;;17.44;89.32;101268.97;4843179;29;19963;-60
2022/06/05 07:49:39;;;;;;;;;;;17.20;99.90;;;17.51;88.61;101261.72;4843376;29;19992;-60
2022/06/05 07:54:54;;;;;;;;;;;17.10;99.90;;;17.48;89.82;101270.69;4843401;29;19952;-61
2022/06/05 07:57:22;;;;;;;;;;;17.20;99.90;;;17.75;88.29;101280.66;4843243;29;19968;-60
2022/06/05 07:59:51;;;;;;;;;;;17.40;99.90;;;17.70;87.10;101262.97;4842929;29;19963;-61
2022/06/05 08:02:22;;;;;;;;;;;17.50;99.90;;;17.84;87.01;101268.81;4843000;29;19981;-60
2022/06/05 08:04:51;;;;;;;;;;;17.60;99.90;;;17.94;86.84;101264.97;4843248;29;19925;-60
2022/06/05 08:07:21;;;;;;;;;;;17.70;99.90;;;18.15;85.44;101245.63;4842742;29;19924;-61
2022/06/05 08:09:52;;;;;;;;;;;17.90;99.90;;;18.15;84.42;101245.63;4842808;29;19924;-60
2022/06/05 08:12:21;;;;;;;;;;;17.90;99.90;;;18.21;84.03;101247.22;4843077;29;20014;-61
2022/06/05 08:14:50;;;;;;;;;;;18.00;99.90;;;18.22;83.05;101254.31;4842695;29;20023;-60
2022/06/05 08:17:22;;;;;;;;;;;18.00;99.90;;;18.13;83.59;101257.28;4843017;29;19924;-61
2022/06/05 08:19:51;;;;;;;;;;;17.90;99.90;;;17.70;84.82;101268.31;4843064;29;19928;-60
2022/06/05 08:22:20;;;;;;;;;;;17.60;99.90;;;17.77;85.23;101244.03;4842731;29;20010;-61
2022/06/05 08:24:49;;;;;;;;;;;17.60;99.90;;;17.90;84.31;101247.25;4842685;29;20023;-61
2022/06/05 08:27:19;;;;;;;;;;;17.70;99.90;;;17.84;85.00;101264.38;4842679;29;20037;-61
2022/06/05 08:29:47;;;;;;;;;;;17.60;99.90;;;18.21;84.43;101264.19;4842573;29;19971;-60
2022/06/05 08:32:16;;;;;;;;;;;17.90;99.90;;;18.56;84.34;101269.38;4842578;29;19930;-60
2022/06/05 08:34:46;;;;;;;;;;;18.20;99.90;;;18.21;82.76;101274.91;4842807;29;20328;-61
2022/06/05 08:43:02;;;;;;;;;;;18.60;99.90;;;19.22;83.50;101313.75;4842587;29;19953;-61
2022/06/05 08:45:37;;;;;;;;;;;18.90;99.90;;;19.47;81.64;101302.16;4842838;29;20422;-61
2022/06/05 08:48:12;;;;;;;;;;;19.20;99.90;;;19.76;80.61;101301.19;4842328;29;19924;-61
2022/06/05 08:50:47;;;;;;;;;;;19.50;99.90;;;19.97;79.00;101312.97;4845693;29;19931;-61
2022/06/05 08:53:21;;;;;;;;;;;19.70;99.90;;;19.99;78.07;101312.00;4846589;29;19931;-61
2022/06/05 08:55:52;;;;;;;;;;;19.90;99.90;;;20.20;77.46;101308.56;4846285;29;19973;-61
2022/06/05 08:58:24;;;;;;;;;;;20.00;99.90;;;20.37;77.13;101289.97;4846305;29;19952;-61
2022/06/05 09:00:55;;;;;;;;;;;20.20;99.90;;;20.39;76.80;101300.66;4846117;29;19973;-61
2022/06/05 09:03:26;;;;;;;;;;;20.30;99.90;;;20.38;76.90;101323.97;4846573;29;19924;-61
2022/06/05 09:05:59;;;;;;;;;;;20.20;99.90;;;20.40;77.38;101311.34;4846009;29;19931;-61
2022/06/05 09:08:34;;;;;;;;;;;20.10;99.90;;;20.51;77.13;101306.47;4845943;29;20035;-61
2022/06/05 09:11:04;;;;;;;;;;;20.30;99.90;;;19.92;76.67;101211.06;4846732;29;19929;-60
2022/06/05 09:13:43;;;;;;;;;;;20.30;99.90;;;20.51;77.61;101302.91;4846123;29;19925;-61
2022/06/05 09:16:14;;;;;;;;;;;20.30;99.90;;;20.57;76.43;101295.47;4846157;29;19925;-60
2022/06/05 09:18:45;;;;;;;;;;;20.30;99.90;;;20.81;75.70;101304.38;4845809;29;19925;-60
2022/06/05 09:21:20;;;;;;;;;;;20.60;99.90;;;20.64;75.81;101298.78;4846032;29;20394;-60
2022/06/05 09:23:54;;;;;;;;;;;20.40;99.90;;;20.51;75.54;101282.28;4845982;29;19928;-61
2022/06/05 09:26:31;;;;;;;;;;;20.30;99.90;;;20.29;76.59;101194.47;4845543;29;19924;-61
2022/06/05 09:29:22;;;;;;;;;;;20.40;99.90;;;21.01;76.45;101300.94;4845408;29;19924;-61
2022/06/05 09:32:11;;;;;;;;;;;20.80;99.90;;;20.60;74.91;101271.16;4845527;29;19924;-61
2022/06/05 09:34:42;;;;;;;;;;;20.70;99.90;;;21.02;75.18;101268.59;4830112;29;19924;-61
2022/06/05 09:37:15;;;;;;;;;;;20.70;99.90;;;21.18;74.68;101284.97;4845704;29;19924;-61
2022/06/05 09:39:45;;;;;;;;;;;20.90;99.90;;;21.04;74.64;101279.31;4845654;29;20379;-60
2022/06/05 09:42:30;;;;;;;;;;;20.80;99.90;;;20.96;74.33;101276.00;4845357;29;20024;-60
2022/06/05 09:45:07;;;;;;;;;;;20.70;99.90;;;20.96;73.61;101279.59;4845315;29;20022;-60
2022/06/05 09:47:40;;;;;;;;;;;20.70;99.90;;;20.91;75.09;101276.19;4845439;29;20287;-60
2022/06/05 09:50:20;;;;;;;;;;;20.70;99.90;;;21.06;75.29;101269.34;4844960;29;20410;-61
2022/06/05 09:52:50;;;;;;;;;;;20.80;99.90;;;21.27;74.29;101271.16;4845310;29;19928;-61
2022/06/05 09:55:20;;;;;;;;;;;21.00;99.90;;;21.03;74.11;101273.03;4845459;29;19934;-61
2022/06/05 10:00:46;;;;;;;;;;;20.70;99.90;;;21.24;74.45;101257.81;4845223;29;19970;-61
2022/06/05 10:03:17;;;;;;;;;;;20.90;99.90;;;21.41;74.04;101255.28;4845126;29;19970;-60
2022/06/05 10:06:03;;;;;;;;;;;21.10;99.90;;;21.59;73.48;101257.19;4845766;29;19977;-61
2022/06/05 10:08:41;;;;;;;;;;;21.40;99.90;;;21.64;73.02;101257.84;4845051;29;20038;-61
2022/06/05 10:11:21;;;;;;;;;;;21.40;99.90;;;21.68;72.79;101254.06;4844753;29;19925;-61
2022/06/05 10:13:54;;;;;;;;;;;21.50;99.90;;;21.77;71.81;101252.81;4845361;29;19979;-61
2022/06/05 10:16:27;;;;;;;;;;;21.60;99.90;;;21.82;71.59;101246.31;4844717;29;19963;-61
2022/06/05 10:18:59;;;;;;;;;;;21.60;99.90;;;21.86;71.59;101247.91;4844683;29;20299;-59
2022/06/05 10:21:34;;;;;;;;;;;21.70;99.90;;;21.88;71.32;101248.72;4844821;29;20346;-59
2022/06/05 10:24:14;;;;;;;;;;;21.70;99.90;;;21.81;71.01;101220.34;4844640;29;19963;-59
2022/06/05 10:26:49;;;;;;;;;;;21.70;99.90;;;22.03;71.32;101231.88;4844594;29;20382;-59
2022/06/05 10:29:20;;;;;;;;;;;21.90;99.90;;;22.14;70.85;101228.69;4844695;29;19924;-59
2022/06/05 10:32:03;;;;;;;;;;;21.90;99.90;;;22.10;70.20;101209.09;4843460;29;20317;-58
2022/06/05 10:34:38;;;;;;;;;;;22.00;99.90;;;22.22;69.68;101223.81;4844267;29;19928;-58
2022/06/05 10:37:16;;;;;;;;;;;22.10;99.90;;;22.33;69.27;101225.06;4844438;29;19928;-57
2022/06/05 10:39:55;;;;;;;;;;;22.20;99.90;;;22.32;69.41;101196.34;4844650;29;19974;-57
2022/06/05 10:42:29;;;;;;;;;;;22.20;99.90;;;22.47;69.22;101215.44;4844313;29;19971;-58
2022/06/05 10:45:23;;;;;;;;;;;22.30;99.90;;;22.50;69.26;101209.88;4844556;29;20377;-58
2022/06/05 10:48:06;;;;;;;;;;;22.30;99.90;;;22.49;69.40;101209.03;4841340;29;20379;-58
2022/06/05 10:50:38;;;;;;;;;;;22.30;99.90;;;22.51;69.35;101215.22;4844142;29;20019;-58
2022/06/05 10:53:12;;;;;;;;;;;22.40;99.90;;;22.56;69.35;101215.88;4844259;29;19924;-59
2022/06/05 10:55:57;;;;;;;;;;;22.40;99.90;;;22.59;68.77;101210.34;4844404;29;19924;-58
2022/06/05 10:58:29;;;;;;;;;;;22.40;99.90;;;22.52;68.89;101189.13;4844539;29;19924;-58
2022/06/05 11:01:03;;;;;;;;;;;22.40;99.90;;;22.58;68.59;101207.75;4844303;29;20007;-59
2022/06/05 11:03:39;;;;;;;;;;;22.40;99.90;;;22.56;68.68;101198.81;4844416;29;19969;-59
2022/06/05 11:06:18;;;;;;;;;;;22.40;99.90;;;22.42;69.10;101186.88;4843946;29;20291;-59
2022/06/05 11:09:08;;;;;;;;;;;22.30;99.90;;;22.57;68.83;101203.31;4843862;29;19961;-59
2022/06/05 11:14:39;;;;;;;;;;;22.30;99.90;;;22.58;68.88;101202.34;4827531;29;20015;-59
2022/06/05 11:17:26;;;;;;;;;;;22.40;99.90;;;22.59;68.97;101209.50;4843739;29;19924;-60
2022/06/05 11:20:03;;;;;;;;;;;22.40;99.90;;;22.29;68.63;101144.41;4843793;29;20370;-61
2022/06/05 11:22:32;;;;;;;;;;;22.40;99.90;;;22.64;69.03;101207.44;4843481;29;19981;-58
2022/06/05 11:25:12;;;;;;;;;;;22.40;99.90;;;22.56;69.26;101193.41;4843505;29;20379;-59
2022/06/05 11:27:51;;;;;;;;;;;22.30;99.90;;;22.57;69.44;101190.66;4843621;29;19924;-58
2022/06/05 11:30:24;;;;;;;;;;;22.40;99.90;;;22.48;69.02;101195.59;4843449;29;19932;-58
2022/06/05 11:32:59;;;;;;;;;;;22.30;99.90;;;22.49;69.41;101187.47;4827449;29;20295;-58
2022/06/05 11:35:34;;;;;;;;;;;22.30;99.90;;;22.48;69.54;101193.78;4843843;29;19924;-58
2022/06/05 11:38:13;;;;;;;;;;;22.30;99.90;;;22.45;69.50;101191.25;4843785;29;19956;-58
2022/06/05 11:40:46;;;;;;;;;;;22.20;99.90;;;22.55;69.75;101192.53;4843482;29;20020;-58
2022/06/05 11:43:29;;;;;;;;;;;22.30;99.90;;;22.55;69.20;101192.53;4842428;29;19996;-58
2022/06/05 11:46:23;;;;;;;;;;;22.40;99.90;;;22.53;69.82;101193.59;4843235;29;19924;-58
2022/06/05 11:48:55;;;;;;;;;;;22.30;99.90;;;22.52;69.84;101191.81;4843478;29;19931;-59